createdAt,value
2022-10-06T00:04:52.334Z,0
2022-10-06T00:11:12.365Z,0
2022-10-06T00:17:35.378Z,0
2022-10-06T00:23:55.384Z,0
2022-10-06T00:30:18.406Z,0
2022-10-06T00:36:38.537Z,0
2022-10-06T00:43:01.418Z,0
2022-10-06T00:49:21.397Z,0
2022-10-06T00:55:44.447Z,0
2022-10-06T01:02:04.437Z,0
2022-10-06T01:08:27.716Z,0
2022-10-06T01:14:47.457Z,0
2022-10-06T01:21:10.321Z,0
2022-10-06T01:27:30.430Z,0
2022-10-06T01:33:53.588Z,0
2022-10-06T01:40:13.358Z,0
2022-10-06T01:46:36.491Z,0
2022-10-06T01:52:56.385Z,0
2022-10-06T01:59:19.388Z,0
2022-10-06T02:05:39.351Z,0
2022-10-06T02:12:02.395Z,0
2022-10-06T02:18:22.352Z,0
2022-10-06T02:24:45.369Z,0
2022-10-06T02:31:05.443Z,0
2022-10-06T02:37:28.324Z,0
2022-10-06T02:43:48.461Z,0
2022-10-06T02:50:11.403Z,0
2022-10-06T02:56:31.461Z,0
2022-10-06T03:02:54.518Z,0
2022-10-06T03:09:14.409Z,0
2022-10-06T03:15:37.429Z,0
2022-10-06T03:33:02.269Z,0
2022-10-06T03:39:25.319Z,0
2022-10-06T03:45:45.351Z,0
2022-10-06T03:52:08.416Z,0
2022-10-06T03:58:28.610Z,0
2022-10-06T04:04:51.415Z,0
2022-10-06T04:11:11.546Z,0
2022-10-06T04:17:34.459Z,0
2022-10-06T04:23:54.341Z,0
2022-10-06T04:30:17.342Z,0
2022-10-06T04:36:37.368Z,0
2022-10-06T04:43:00.383Z,0
2022-10-06T04:49:20.835Z,0
2022-10-06T04:55:43.426Z,0
2022-10-06T05:02:03.410Z,0
2022-10-06T05:08:26.727Z,1
2022-10-06T05:14:46.311Z,2
2022-10-06T05:21:09.371Z,5
2022-10-06T05:27:29.387Z,15
2022-10-06T05:33:52.366Z,38
2022-10-06T05:40:12.416Z,74
2022-10-06T05:46:35.428Z,123
2022-10-06T05:52:55.401Z,183
2022-10-06T05:59:18.368Z,253
2022-10-06T06:05:38.416Z,323
2022-10-06T06:12:01.373Z,390
2022-10-06T06:18:21.390Z,443
2022-10-06T06:24:44.473Z,502
2022-10-06T06:31:04.444Z,549
2022-10-06T06:37:27.409Z,571
2022-10-06T06:43:47.545Z,594
2022-10-06T06:50:10.557Z,583
2022-10-06T06:56:30.427Z,569
2022-10-06T07:02:53.452Z,610
2022-10-06T07:09:13.347Z,606
2022-10-06T07:15:36.404Z,649
2022-10-06T07:21:56.457Z,685
2022-10-06T07:28:19.477Z,797
2022-10-06T07:34:39.431Z,782
2022-10-06T07:47:22.419Z,845
2022-10-06T07:53:45.360Z,955
2022-10-06T08:00:05.691Z,1092
2022-10-06T08:06:28.392Z,1114
2022-10-06T08:12:48.453Z,1249
2022-10-06T08:19:11.501Z,1247
2022-10-06T08:25:31.395Z,1383
2022-10-06T08:41:41.298Z,1582
2022-10-06T08:48:01.348Z,1654
2022-10-06T08:54:24.494Z,1774
2022-10-06T09:00:44.510Z,1911
2022-10-06T09:07:11.308Z,2071
2022-10-06T09:13:27.615Z,2229
2022-10-06T09:19:50.405Z,2364
2022-10-06T09:26:10.363Z,2495
2022-10-06T09:32:33.370Z,2679
2022-10-06T09:38:53.351Z,2864
2022-10-06T09:45:16.363Z,2951
2022-10-06T09:51:36.371Z,2762
2022-10-06T09:57:59.420Z,3081
2022-10-06T10:04:20.824Z,3132
2022-10-06T10:10:42.482Z,3181
2022-10-06T10:17:02.379Z,3172
2022-10-06T10:23:30.262Z,3261
2022-10-06T10:29:45.412Z,3314
2022-10-06T10:36:08.459Z,3474
2022-10-06T10:42:28.383Z,3576
2022-10-06T10:48:51.389Z,3716
2022-10-06T10:55:11.409Z,3843
2022-10-06T11:01:34.480Z,3989
2022-10-06T11:07:54.377Z,4140
2022-10-06T11:14:17.383Z,4314
2022-10-06T11:20:37.400Z,4492
2022-10-06T11:27:00.383Z,4663
2022-10-06T11:33:20.423Z,4807
2022-10-06T11:39:43.357Z,4998
2022-10-06T11:46:03.543Z,5145
2022-10-06T11:52:26.374Z,5255
2022-10-06T11:58:46.385Z,5320
2022-10-06T12:05:23.114Z,5435
2022-10-06T12:11:29.459Z,5485
2022-10-06T12:17:52.464Z,5514
2022-10-06T12:30:35.528Z,5472
2022-10-06T12:36:55.329Z,5472
2022-10-06T12:43:18.454Z,5191
2022-10-06T12:49:38.463Z,4972
2022-10-06T12:56:01.341Z,4820
2022-10-06T13:02:21.487Z,4646
2022-10-06T13:08:44.373Z,4175
2022-10-06T13:15:04.379Z,3715
2022-10-06T13:21:27.423Z,3360
2022-10-06T13:27:47.357Z,2959
2022-10-06T13:44:15.281Z,1992
2022-10-06T13:50:35.338Z,1895
2022-10-06T13:56:58.336Z,1805
2022-10-06T14:03:18.400Z,1688
2022-10-06T14:09:41.326Z,1693
2022-10-06T14:16:01.417Z,1652
2022-10-06T14:22:24.445Z,1502
2022-10-06T14:28:44.383Z,1487
2022-10-06T14:35:07.383Z,1424
2022-10-06T14:41:27.527Z,1408
2022-10-06T14:47:50.470Z,1414
2022-10-06T14:54:10.529Z,1380
2022-10-06T15:00:33.448Z,1358
2022-10-06T15:06:53.351Z,1333
2022-10-06T15:13:16.405Z,1292
2022-10-06T15:19:36.462Z,1215
2022-10-06T15:25:59.368Z,1118
2022-10-06T15:32:19.477Z,993
2022-10-06T15:38:42.697Z,909
2022-10-06T15:45:06.616Z,876
2022-10-06T15:51:25.444Z,821
2022-10-06T15:57:45.363Z,753
2022-10-06T16:04:08.411Z,700
2022-10-06T16:10:28.329Z,630
2022-10-06T16:16:51.419Z,577
2022-10-06T16:23:11.454Z,513
2022-10-06T16:29:34.418Z,440
2022-10-06T16:35:54.404Z,361
2022-10-06T16:42:17.469Z,276
2022-10-06T16:48:37.364Z,199
2022-10-06T16:55:00.400Z,128
2022-10-06T17:01:20.541Z,74
2022-10-06T17:07:43.492Z,36
2022-10-06T17:14:03.410Z,15
2022-10-06T17:20:26.393Z,4
2022-10-06T17:26:46.316Z,2
2022-10-06T17:33:09.453Z,0
2022-10-06T17:39:29.381Z,0
2022-10-06T17:45:52.378Z,0
2022-10-06T17:52:12.572Z,0
2022-10-06T17:58:35.450Z,0
2022-10-06T18:04:55.366Z,0
2022-10-06T18:11:18.480Z,0
2022-10-06T18:17:38.319Z,0
2022-10-06T18:24:01.390Z,0
2022-10-06T18:30:23.701Z,0
2022-10-06T18:46:49.363Z,0
2022-10-06T18:53:09.393Z,0
2022-10-06T18:59:32.373Z,0
2022-10-06T19:05:52.429Z,0
2022-10-06T19:12:15.333Z,0
2022-10-06T19:18:35.361Z,0
2022-10-06T19:24:58.374Z,0
2022-10-06T19:31:18.467Z,0
2022-10-06T19:37:41.748Z,0
2022-10-06T19:44:01.357Z,0
2022-10-06T19:50:24.598Z,0
2022-10-06T19:56:44.578Z,0
2022-10-06T20:03:07.465Z,0
2022-10-06T20:09:27.426Z,0
2022-10-06T20:15:50.340Z,0
2022-10-06T20:22:10.423Z,0
2022-10-06T20:28:33.488Z,0
2022-10-06T20:34:53.329Z,0
2022-10-06T20:41:16.550Z,0
2022-10-06T20:47:36.401Z,0
2022-10-06T20:53:59.379Z,0
2022-10-06T21:00:19.333Z,0
2022-10-06T21:06:42.778Z,0
2022-10-06T21:13:03.829Z,0
2022-10-06T21:19:27.789Z,0
2022-10-06T21:25:48.833Z,0
2022-10-06T21:32:12.834Z,0
2022-10-06T21:38:33.722Z,0
2022-10-06T21:44:56.732Z,0
2022-10-06T21:51:17.679Z,0
2022-10-06T21:57:41.036Z,0
2022-10-06T22:20:38.798Z,0
2022-10-06T22:26:59.693Z,0
2022-10-06T22:33:22.772Z,0
2022-10-06T22:39:43.866Z,0
2022-10-06T22:46:07.902Z,0
2022-10-06T22:52:28.746Z,0
2022-10-06T22:58:52.853Z,0
2022-10-06T23:05:13.830Z,0
2022-10-06T23:11:37.810Z,0
2022-10-06T23:17:58.774Z,0
2022-10-06T23:24:21.711Z,0
2022-10-06T23:30:41.788Z,0
2022-10-06T23:37:05.731Z,0
2022-10-06T23:43:25.880Z,0
2022-10-06T23:49:49.824Z,0
2022-10-06T23:56:10.782Z,0
